sensor_id;sensor_type;location;lat;lon;timestamp;temperature;humidity
36924;DHT22;22841;50.252;18.688;2023-06-10T00:01:52;16.00;99.90
36924;DHT22;22841;50.252;18.688;2023-06-10T00:04:21;16.00;99.90
36924;DHT22;22841;50.252;18.688;2023-06-10T00:06:47;16.00;99.90
36924;DHT22;22841;50.252;18.688;2023-06-10T00:09:15;16.00;99.90
36924;DHT22;22841;50.252;18.688;2023-06-10T00:11:42;15.90;99.90
36924;DHT22;22841;50.252;18.688;2023-06-10T00:14:08;15.90;99.90
36924;DHT22;22841;50.252;18.688;2023-06-10T00:16:34;15.90;99.90
36924;DHT22;22841;50.252;18.688;2023-06-10T00:19:03;15.90;99.90
36924;DHT22;22841;50.252;18.688;2023-06-10T00:21:33;15.90;99.90
36924;DHT22;22841;50.252;18.688;2023-06-10T00:24:09;15.90;99.90
36924;DHT22;22841;50.252;18.688;2023-06-10T00:26:38;15.90;99.90
36924;DHT22;22841;50.252;18.688;2023-06-10T00:29:05;15.90;99.90
36924;DHT22;22841;50.252;18.688;2023-06-10T00:31:31;15.90;99.90
36924;DHT22;22841;50.252;18.688;2023-06-10T00:33:57;15.90;99.90
36924;DHT22;22841;50.252;18.688;2023-06-10T00:36:24;15.80;99.90
36924;DHT22;22841;50.252;18.688;2023-06-10T00:38:50;15.80;99.90
36924;DHT22;22841;50.252;18.688;2023-06-10T00:41:16;15.80;99.90
36924;DHT22;22841;50.252;18.688;2023-06-10T00:43:43;15.80;99.90
36924;DHT22;22841;50.252;18.688;2023-06-10T00:46:10;15.80;99.90
36924;DHT22;22841;50.252;18.688;2023-06-10T00:48:38;15.80;99.90
36924;DHT22;22841;50.252;18.688;2023-06-10T00:51:05;15.80;99.90
36924;DHT22;22841;50.252;18.688;2023-06-10T00:53:32;15.70;99.90
36924;DHT22;22841;50.252;18.688;2023-06-10T00:55:59;15.80;99.90
36924;DHT22;22841;50.252;18.688;2023-06-10T00:58:25;15.80;99.90
36924;DHT22;22841;50.252;18.688;2023-06-10T01:00:52;15.70;99.90
36924;DHT22;22841;50.252;18.688;2023-06-10T01:03:19;15.80;99.90
36924;DHT22;22841;50.252;18.688;2023-06-10T01:05:53;15.70;99.90
36924;DHT22;22841;50.252;18.688;2023-06-10T01:09:00;15.70;99.90
36924;DHT22;22841;50.252;18.688;2023-06-10T01:11:37;15.70;99.90
36924;DHT22;22841;50.252;18.688;2023-06-10T01:14:07;15.70;99.90
36924;DHT22;22841;50.252;18.688;2023-06-10T01:16:35;15.70;99.90
36924;DHT22;22841;50.252;18.688;2023-06-10T01:19:03;15.70;99.90
36924;DHT22;22841;50.252;18.688;2023-06-10T01:21:29;15.70;99.90
36924;DHT22;22841;50.252;18.688;2023-06-10T01:23:56;15.70;99.90
36924;DHT22;22841;50.252;18.688;2023-06-10T01:26:28;15.80;99.90
36924;DHT22;22841;50.252;18.688;2023-06-10T01:29:00;15.80;99.90
36924;DHT22;22841;50.252;18.688;2023-06-10T01:32:12;15.80;99.90
36924;DHT22;22841;50.252;18.688;2023-06-10T01:34:39;15.80;99.90
36924;DHT22;22841;50.252;18.688;2023-06-10T01:37:09;15.80;99.90
36924;DHT22;22841;50.252;18.688;2023-06-10T01:39:36;15.80;99.90
36924;DHT22;22841;50.252;18.688;2023-06-10T01:42:03;15.80;99.90
36924;DHT22;22841;50.252;18.688;2023-06-10T01:44:30;15.80;99.90
36924;DHT22;22841;50.252;18.688;2023-06-10T01:46:56;15.80;99.90
36924;DHT22;22841;50.252;18.688;2023-06-10T01:49:22;15.80;99.90
36924;DHT22;22841;50.252;18.688;2023-06-10T01:51:49;15.80;99.90
36924;DHT22;22841;50.252;18.688;2023-06-10T01:54:16;15.70;99.90
36924;DHT22;22841;50.252;18.688;2023-06-10T01:56:42;15.70;99.90
36924;DHT22;22841;50.252;18.688;2023-06-10T01:59:08;15.70;99.90
36924;DHT22;22841;50.252;18.688;2023-06-10T02:01:34;15.70;99.90
36924;DHT22;22841;50.252;18.688;2023-06-10T02:04:00;15.70;99.90
36924;DHT22;22841;50.252;18.688;2023-06-10T02:06:26;15.60;99.90
36924;DHT22;22841;50.252;18.688;2023-06-10T02:08:52;15.60;99.90
36924;DHT22;22841;50.252;18.688;2023-06-10T02:11:19;15.50;99.90
36924;DHT22;22841;50.252;18.688;2023-06-10T02:13:45;15.60;99.90
36924;DHT22;22841;50.252;18.688;2023-06-10T02:16:11;15.50;99.90
36924;DHT22;22841;50.252;18.688;2023-06-10T02:18:39;15.50;99.90
36924;DHT22;22841;50.252;18.688;2023-06-10T02:21:08;15.60;99.90
36924;DHT22;22841;50.252;18.688;2023-06-10T02:23:35;15.60;99.90
36924;DHT22;22841;50.252;18.688;2023-06-10T02:26:01;15.60;99.90
36924;DHT22;22841;50.252;18.688;2023-06-10T02:28:28;15.70;99.90
36924;DHT22;22841;50.252;18.688;2023-06-10T02:30:54;15.60;99.90
36924;DHT22;22841;50.252;18.688;2023-06-10T02:33:20;15.70;99.90
36924;DHT22;22841;50.252;18.688;2023-06-10T02:35:46;15.70;99.90
36924;DHT22;22841;50.252;18.688;2023-06-10T02:38:12;15.70;99.90
36924;DHT22;22841;50.252;18.688;2023-06-10T02:40:38;15.70;99.90
36924;DHT22;22841;50.252;18.688;2023-06-10T02:43:04;15.70;99.90
36924;DHT22;22841;50.252;18.688;2023-06-10T02:45:30;15.70;99.90
36924;DHT22;22841;50.252;18.688;2023-06-10T02:47:56;15.70;99.90
36924;DHT22;22841;50.252;18.688;2023-06-10T02:50:23;15.70;99.90
36924;DHT22;22841;50.252;18.688;2023-06-10T02:52:49;15.70;99.90
36924;DHT22;22841;50.252;18.688;2023-06-10T02:55:15;15.70;99.90
36924;DHT22;22841;50.252;18.688;2023-06-10T02:57:42;15.70;99.90
36924;DHT22;22841;50.252;18.688;2023-06-10T03:00:08;15.70;99.90
36924;DHT22;22841;50.252;18.688;2023-06-10T03:02:37;15.70;99.90
36924;DHT22;22841;50.252;18.688;2023-06-10T03:05:05;15.70;99.90
36924;DHT22;22841;50.252;18.688;2023-06-10T03:07:31;15.70;99.90
36924;DHT22;22841;50.252;18.688;2023-06-10T03:09:57;15.80;99.90
36924;DHT22;22841;50.252;18.688;2023-06-10T03:12:23;15.70;99.90
36924;DHT22;22841;50.252;18.688;2023-06-10T03:14:50;15.80;99.90
36924;DHT22;22841;50.252;18.688;2023-06-10T03:17:16;15.80;99.90
36924;DHT22;22841;50.252;18.688;2023-06-10T03:19:42;15.80;99.90
36924;DHT22;22841;50.252;18.688;2023-06-10T03:22:13;15.80;99.90
36924;DHT22;22841;50.252;18.688;2023-06-10T03:24:39;15.80;99.90
36924;DHT22;22841;50.252;18.688;2023-06-10T03:27:15;15.80;99.90
36924;DHT22;22841;50.252;18.688;2023-06-10T03:29:42;15.80;99.90
36924;DHT22;22841;50.252;18.688;2023-06-10T03:32:08;15.80;99.90
36924;DHT22;22841;50.252;18.688;2023-06-10T03:34:34;15.80;99.90
36924;DHT22;22841;50.252;18.688;2023-06-10T03:37:00;15.80;99.90
36924;DHT22;22841;50.252;18.688;2023-06-10T03:39:27;15.80;99.90
36924;DHT22;22841;50.252;18.688;2023-06-10T03:41:55;15.80;99.90
36924;DHT22;22841;50.252;18.688;2023-06-10T03:44:23;15.80;99.90
36924;DHT22;22841;50.252;18.688;2023-06-10T03:46:50;15.90;99.90
36924;DHT22;22841;50.252;18.688;2023-06-10T03:49:16;15.90;99.90
36924;DHT22;22841;50.252;18.688;2023-06-10T03:51:43;15.90;99.90
36924;DHT22;22841;50.252;18.688;2023-06-10T03:54:09;15.90;99.90
36924;DHT22;22841;50.252;18.688;2023-06-10T03:56:35;15.90;99.90
36924;DHT22;22841;50.252;18.688;2023-06-10T03:59:02;15.90;99.90
36924;DHT22;22841;50.252;18.688;2023-06-10T04:01:28;15.90;99.90
36924;DHT22;22841;50.252;18.688;2023-06-10T04:03:54;15.90;99.90
36924;DHT22;22841;50.252;18.688;2023-06-10T04:06:21;16.00;99.90
36924;DHT22;22841;50.252;18.688;2023-06-10T04:08:48;16.00;99.90
36924;DHT22;22841;50.252;18.688;2023-06-10T04:11:14;16.00;99.90
36924;DHT22;22841;50.252;18.688;2023-06-10T04:13:40;16.00;99.90
36924;DHT22;22841;50.252;18.688;2023-06-10T04:16:07;16.00;99.90
36924;DHT22;22841;50.252;18.688;2023-06-10T04:18:33;16.10;99.90
36924;DHT22;22841;50.252;18.688;2023-06-10T04:20:59;16.10;99.90
36924;DHT22;22841;50.252;18.688;2023-06-10T04:23:25;16.10;99.90
36924;DHT22;22841;50.252;18.688;2023-06-10T04:25:52;16.10;99.90
36924;DHT22;22841;50.252;18.688;2023-06-10T04:28:18;16.10;99.90
36924;DHT22;22841;50.252;18.688;2023-06-10T04:30:44;16.10;99.90
36924;DHT22;22841;50.252;18.688;2023-06-10T04:33:11;16.10;99.90
36924;DHT22;22841;50.252;18.688;2023-06-10T04:35:37;16.20;99.90
36924;DHT22;22841;50.252;18.688;2023-06-10T04:38:03;16.20;99.90
36924;DHT22;22841;50.252;18.688;2023-06-10T04:40:29;16.30;99.90
36924;DHT22;22841;50.252;18.688;2023-06-10T04:42:56;16.30;99.90
36924;DHT22;22841;50.252;18.688;2023-06-10T04:45:22;16.30;99.90
36924;DHT22;22841;50.252;18.688;2023-06-10T04:47:48;16.20;99.90
36924;DHT22;22841;50.252;18.688;2023-06-10T04:50:14;16.20;99.90
36924;DHT22;22841;50.252;18.688;2023-06-10T04:52:41;16.30;99.90
36924;DHT22;22841;50.252;18.688;2023-06-10T04:55:08;16.30;99.90
36924;DHT22;22841;50.252;18.688;2023-06-10T04:57:34;16.30;99.90
36924;DHT22;22841;50.252;18.688;2023-06-10T05:00:01;16.30;99.90
36924;DHT22;22841;50.252;18.688;2023-06-10T05:02:27;16.30;99.90
36924;DHT22;22841;50.252;18.688;2023-06-10T05:04:53;16.40;99.90
36924;DHT22;22841;50.252;18.688;2023-06-10T05:07:20;16.40;99.90
36924;DHT22;22841;50.252;18.688;2023-06-10T05:09:46;16.40;99.90
36924;DHT22;22841;50.252;18.688;2023-06-10T05:12:13;16.40;99.90
36924;DHT22;22841;50.252;18.688;2023-06-10T05:14:39;16.40;99.90
36924;DHT22;22841;50.252;18.688;2023-06-10T05:20:27;16.50;99.90
36924;DHT22;22841;50.252;18.688;2023-06-10T05:22:54;16.50;99.90
36924;DHT22;22841;50.252;18.688;2023-06-10T05:25:21;16.50;99.90
36924;DHT22;22841;50.252;18.688;2023-06-10T05:27:47;16.50;99.90
36924;DHT22;22841;50.252;18.688;2023-06-10T05:30:13;16.60;99.90
36924;DHT22;22841;50.252;18.688;2023-06-10T05:32:39;16.60;99.90
36924;DHT22;22841;50.252;18.688;2023-06-10T05:35:05;16.60;99.90
36924;DHT22;22841;50.252;18.688;2023-06-10T05:37:33;16.70;99.90
36924;DHT22;22841;50.252;18.688;2023-06-10T05:40:01;16.70;99.90
36924;DHT22;22841;50.252;18.688;2023-06-10T05:42:27;16.80;99.90
36924;DHT22;22841;50.252;18.688;2023-06-10T05:44:54;16.80;99.90
36924;DHT22;22841;50.252;18.688;2023-06-10T05:47:20;16.80;99.90
36924;DHT22;22841;50.252;18.688;2023-06-10T05:49:46;16.80;99.90
36924;DHT22;22841;50.252;18.688;2023-06-10T05:52:14;16.80;99.90
36924;DHT22;22841;50.252;18.688;2023-06-10T05:54:40;16.90;99.90
36924;DHT22;22841;50.252;18.688;2023-06-10T05:57:06;17.00;99.90
36924;DHT22;22841;50.252;18.688;2023-06-10T05:59:32;17.20;99.90
36924;DHT22;22841;50.252;18.688;2023-06-10T06:01:58;17.30;99.90
36924;DHT22;22841;50.252;18.688;2023-06-10T06:04:24;17.40;99.90
36924;DHT22;22841;50.252;18.688;2023-06-10T06:06:50;17.50;99.90
36924;DHT22;22841;50.252;18.688;2023-06-10T06:09:17;17.40;99.90
36924;DHT22;22841;50.252;18.688;2023-06-10T06:11:43;17.40;99.90
36924;DHT22;22841;50.252;18.688;2023-06-10T06:14:09;17.40;99.90
36924;DHT22;22841;50.252;18.688;2023-06-10T06:16:35;17.40;99.90
36924;DHT22;22841;50.252;18.688;2023-06-10T06:19:01;17.40;99.90
36924;DHT22;22841;50.252;18.688;2023-06-10T06:21:27;17.30;99.90
36924;DHT22;22841;50.252;18.688;2023-06-10T06:23:53;17.30;99.90
36924;DHT22;22841;50.252;18.688;2023-06-10T06:26:20;17.20;99.90
36924;DHT22;22841;50.252;18.688;2023-06-10T06:28:46;17.30;99.90
36924;DHT22;22841;50.252;18.688;2023-06-10T06:31:12;17.20;99.90
36924;DHT22;22841;50.252;18.688;2023-06-10T06:33:38;17.30;99.90
36924;DHT22;22841;50.252;18.688;2023-06-10T06:36:05;17.30;99.90
36924;DHT22;22841;50.252;18.688;2023-06-10T06:38:31;17.20;99.90
36924;DHT22;22841;50.252;18.688;2023-06-10T06:40:57;17.20;99.90
36924;DHT22;22841;50.252;18.688;2023-06-10T06:43:29;17.20;99.90
36924;DHT22;22841;50.252;18.688;2023-06-10T06:45:57;17.30;99.90
36924;DHT22;22841;50.252;18.688;2023-06-10T06:48:24;17.30;99.90
36924;DHT22;22841;50.252;18.688;2023-06-10T06:50:50;17.30;99.90
36924;DHT22;22841;50.252;18.688;2023-06-10T06:53:16;17.40;99.90
36924;DHT22;22841;50.252;18.688;2023-06-10T06:55:42;17.40;99.90
36924;DHT22;22841;50.252;18.688;2023-06-10T06:58:08;17.50;99.90
36924;DHT22;22841;50.252;18.688;2023-06-10T07:00:34;17.40;99.90
36924;DHT22;22841;50.252;18.688;2023-06-10T07:03:00;17.50;99.90
36924;DHT22;22841;50.252;18.688;2023-06-10T07:05:26;17.50;99.90
36924;DHT22;22841;50.252;18.688;2023-06-10T07:07:53;17.50;99.90
36924;DHT22;22841;50.252;18.688;2023-06-10T07:10:24;17.50;99.90
36924;DHT22;22841;50.252;18.688;2023-06-10T07:12:51;17.60;99.90
36924;DHT22;22841;50.252;18.688;2023-06-10T07:15:18;17.60;99.90
36924;DHT22;22841;50.252;18.688;2023-06-10T07:17:44;17.60;99.90
36924;DHT22;22841;50.252;18.688;2023-06-10T07:20:11;17.60;99.90
36924;DHT22;22841;50.252;18.688;2023-06-10T07:22:37;17.70;99.90
36924;DHT22;22841;50.252;18.688;2023-06-10T07:25:05;17.60;99.90
36924;DHT22;22841;50.252;18.688;2023-06-10T07:27:31;17.60;99.90
36924;DHT22;22841;50.252;18.688;2023-06-10T07:29:57;17.70;99.90
36924;DHT22;22841;50.252;18.688;2023-06-10T07:32:24;17.70;99.90
36924;DHT22;22841;50.252;18.688;2023-06-10T07:34:50;17.80;99.90
36924;DHT22;22841;50.252;18.688;2023-06-10T07:37:16;17.80;99.90
36924;DHT22;22841;50.252;18.688;2023-06-10T07:39:43;17.90;99.90
36924;DHT22;22841;50.252;18.688;2023-06-10T07:42:09;17.90;99.90
36924;DHT22;22841;50.252;18.688;2023-06-10T07:44:35;18.00;99.90
36924;DHT22;22841;50.252;18.688;2023-06-10T07:47:02;18.10;99.90
36924;DHT22;22841;50.252;18.688;2023-06-10T07:49:28;18.10;99.90
36924;DHT22;22841;50.252;18.688;2023-06-10T07:51:55;18.20;99.90
36924;DHT22;22841;50.252;18.688;2023-06-10T07:54:24;18.20;99.90
36924;DHT22;22841;50.252;18.688;2023-06-10T07:56:50;18.30;99.90
36924;DHT22;22841;50.252;18.688;2023-06-10T07:59:18;18.20;99.90
36924;DHT22;22841;50.252;18.688;2023-06-10T08:01:44;18.20;99.90
36924;DHT22;22841;50.252;18.688;2023-06-10T08:04:10;18.20;99.90
36924;DHT22;22841;50.252;18.688;2023-06-10T08:06:36;18.20;99.90
36924;DHT22;22841;50.252;18.688;2023-06-10T08:09:03;18.20;99.90
36924;DHT22;22841;50.252;18.688;2023-06-10T08:11:29;18.20;99.90
36924;DHT22;22841;50.252;18.688;2023-06-10T08:13:55;18.20;99.90
36924;DHT22;22841;50.252;18.688;2023-06-10T08:16:22;18.30;99.90
36924;DHT22;22841;50.252;18.688;2023-06-10T08:18:48;18.30;99.90
36924;DHT22;22841;50.252;18.688;2023-06-10T08:21:16;18.30;99.90
36924;DHT22;22841;50.252;18.688;2023-06-10T08:23:42;18.20;99.90
36924;DHT22;22841;50.252;18.688;2023-06-10T08:26:09;18.30;99.90
36924;DHT22;22841;50.252;18.688;2023-06-10T08:28:36;18.20;99.90
36924;DHT22;22841;50.252;18.688;2023-06-10T08:31:02;18.20;99.90
36924;DHT22;22841;50.252;18.688;2023-06-10T08:33:28;18.20;99.90
36924;DHT22;22841;50.252;18.688;2023-06-10T08:35:54;18.30;99.90
36924;DHT22;22841;50.252;18.688;2023-06-10T08:38:20;18.30;99.90
36924;DHT22;22841;50.252;18.688;2023-06-10T08:40:46;18.30;99.90
36924;DHT22;22841;50.252;18.688;2023-06-10T08:46:34;18.50;99.90
36924;DHT22;22841;50.252;18.688;2023-06-10T08:49:03;18.50;99.90
36924;DHT22;22841;50.252;18.688;2023-06-10T08:51:32;18.60;99.90
36924;DHT22;22841;50.252;18.688;2023-06-10T08:54:09;18.70;99.90
36924;DHT22;22841;50.252;18.688;2023-06-10T08:56:39;18.80;99.90
36924;DHT22;22841;50.252;18.688;2023-06-10T08:59:06;18.80;99.90
36924;DHT22;22841;50.252;18.688;2023-06-10T09:01:32;18.80;99.90
36924;DHT22;22841;50.252;18.688;2023-06-10T09:03:59;18.80;99.90
36924;DHT22;22841;50.252;18.688;2023-06-10T09:06:26;18.90;99.90
36924;DHT22;22841;50.252;18.688;2023-06-10T09:08:52;19.00;99.90
36924;DHT22;22841;50.252;18.688;2023-06-10T09:11:19;19.00;99.90
36924;DHT22;22841;50.252;18.688;2023-06-10T09:13:45;19.00;99.90
36924;DHT22;22841;50.252;18.688;2023-06-10T09:16:11;19.10;99.90
36924;DHT22;22841;50.252;18.688;2023-06-10T09:18:42;19.20;99.90
36924;DHT22;22841;50.252;18.688;2023-06-10T09:21:08;19.30;99.90
36924;DHT22;22841;50.252;18.688;2023-06-10T09:23:35;19.50;99.90
36924;DHT22;22841;50.252;18.688;2023-06-10T09:26:02;19.50;99.90
36924;DHT22;22841;50.252;18.688;2023-06-10T09:28:30;19.60;99.90
36924;DHT22;22841;50.252;18.688;2023-06-10T09:31:05;19.70;99.90
36924;DHT22;22841;50.252;18.688;2023-06-10T09:33:31;19.80;99.90
36924;DHT22;22841;50.252;18.688;2023-06-10T09:35:57;19.90;99.90
36924;DHT22;22841;50.252;18.688;2023-06-10T09:38:30;20.00;99.90
36924;DHT22;22841;50.252;18.688;2023-06-10T09:40:57;20.20;99.90
36924;DHT22;22841;50.252;18.688;2023-06-10T09:43:41;20.40;99.90
36924;DHT22;22841;50.252;18.688;2023-06-10T09:46:18;20.30;99.90
36924;DHT22;22841;50.252;18.688;2023-06-10T09:48:46;20.30;99.90
36924;DHT22;22841;50.252;18.688;2023-06-10T09:51:14;20.30;99.90
36924;DHT22;22841;50.252;18.688;2023-06-10T09:53:40;20.50;99.90
36924;DHT22;22841;50.252;18.688;2023-06-10T09:56:07;20.50;99.90
36924;DHT22;22841;50.252;18.688;2023-06-10T09:58:39;20.50;99.90
36924;DHT22;22841;50.252;18.688;2023-06-10T10:01:12;20.70;99.90
36924;DHT22;22841;50.252;18.688;2023-06-10T10:06:15;20.70;99.90
36924;DHT22;22841;50.252;18.688;2023-06-10T10:08:42;20.60;99.90
36924;DHT22;22841;50.252;18.688;2023-06-10T10:11:10;20.60;99.90
36924;DHT22;22841;50.252;18.688;2023-06-10T10:13:37;20.60;99.90
36924;DHT22;22841;50.252;18.688;2023-06-10T10:16:11;20.50;99.90
36924;DHT22;22841;50.252;18.688;2023-06-10T10:18:40;20.60;99.90
36924;DHT22;22841;50.252;18.688;2023-06-10T10:21:12;20.70;99.90
36924;DHT22;22841;50.252;18.688;2023-06-10T10:24:07;20.80;99.90
36924;DHT22;22841;50.252;18.688;2023-06-10T10:26:37;20.90;99.90
36924;DHT22;22841;50.252;18.688;2023-06-10T10:29:10;21.00;99.90
36924;DHT22;22841;50.252;18.688;2023-06-10T10:31:37;21.20;99.90
36924;DHT22;22841;50.252;18.688;2023-06-10T10:34:07;21.40;99.90
36924;DHT22;22841;50.252;18.688;2023-06-10T10:36:35;21.50;99.90
36924;DHT22;22841;50.252;18.688;2023-06-10T10:39:04;21.60;99.90
36924;DHT22;22841;50.252;18.688;2023-06-10T10:41:31;21.70;99.90
36924;DHT22;22841;50.252;18.688;2023-06-10T10:43:59;21.70;99.90
36924;DHT22;22841;50.252;18.688;2023-06-10T10:46:26;21.70;99.90
36924;DHT22;22841;50.252;18.688;2023-06-10T10:48:53;21.70;99.90
36924;DHT22;22841;50.252;18.688;2023-06-10T10:51:21;21.70;99.90
36924;DHT22;22841;50.252;18.688;2023-06-10T10:54:10;21.60;99.90
36924;DHT22;22841;50.252;18.688;2023-06-10T10:56:37;21.70;99.90
36924;DHT22;22841;50.252;18.688;2023-06-10T10:59:07;21.70;99.90
36924;DHT22;22841;50.252;18.688;2023-06-10T11:01:43;21.70;99.90
36924;DHT22;22841;50.252;18.688;2023-06-10T11:04:12;21.50;99.90
36924;DHT22;22841;50.252;18.688;2023-06-10T11:06:38;21.50;99.90
36924;DHT22;22841;50.252;18.688;2023-06-10T11:09:27;21.60;99.90
36924;DHT22;22841;50.252;18.688;2023-06-10T11:11:57;21.60;99.90
36924;DHT22;22841;50.252;18.688;2023-06-10T11:14:28;21.60;99.90
36924;DHT22;22841;50.252;18.688;2023-06-10T11:16:59;21.70;99.90
36924;DHT22;22841;50.252;18.688;2023-06-10T11:19:36;21.70;99.90
36924;DHT22;22841;50.252;18.688;2023-06-10T11:22:07;21.70;99.90
36924;DHT22;22841;50.252;18.688;2023-06-10T11:24:33;21.80;99.90
36924;DHT22;22841;50.252;18.688;2023-06-10T11:27:22;21.80;99.90
36924;DHT22;22841;50.252;18.688;2023-06-10T11:32:30;21.80;99.90
36924;DHT22;22841;50.252;18.688;2023-06-10T11:34:58;21.80;99.90
36924;DHT22;22841;50.252;18.688;2023-06-10T11:37:24;21.90;99.90
36924;DHT22;22841;50.252;18.688;2023-06-10T11:39:55;21.90;99.90
36924;DHT22;22841;50.252;18.688;2023-06-10T11:42:24;22.00;99.90
36924;DHT22;22841;50.252;18.688;2023-06-10T11:44:54;22.10;99.90
36924;DHT22;22841;50.252;18.688;2023-06-10T11:47:20;22.20;99.90
36924;DHT22;22841;50.252;18.688;2023-06-10T11:49:56;22.30;99.90
36924;DHT22;22841;50.252;18.688;2023-06-10T11:52:30;22.40;99.90
36924;DHT22;22841;50.252;18.688;2023-06-10T11:54:58;22.60;99.90
36924;DHT22;22841;50.252;18.688;2023-06-10T11:57:24;22.60;99.90
36924;DHT22;22841;50.252;18.688;2023-06-10T11:59:50;22.50;99.90
36924;DHT22;22841;50.252;18.688;2023-06-10T12:02:17;22.70;99.90
36924;DHT22;22841;50.252;18.688;2023-06-10T12:04:45;23.20;99.90
36924;DHT22;22841;50.252;18.688;2023-06-10T12:07:17;23.80;99.90
36924;DHT22;22841;50.252;18.688;2023-06-10T12:09:45;24.40;99.90
36924;DHT22;22841;50.252;18.688;2023-06-10T12:12:11;24.90;99.90
36924;DHT22;22841;50.252;18.688;2023-06-10T12:17:21;25.20;99.90
36924;DHT22;22841;50.252;18.688;2023-06-10T12:19:49;24.90;99.90
36924;DHT22;22841;50.252;18.688;2023-06-10T12:22:15;24.40;99.90
36924;DHT22;22841;50.252;18.688;2023-06-10T12:24:56;24.20;99.90
36924;DHT22;22841;50.252;18.688;2023-06-10T12:27:23;24.10;99.90
36924;DHT22;22841;50.252;18.688;2023-06-10T12:29:52;23.90;99.90
36924;DHT22;22841;50.252;18.688;2023-06-10T12:32:22;23.90;99.90
36924;DHT22;22841;50.252;18.688;2023-06-10T12:35:03;23.90;99.90
36924;DHT22;22841;50.252;18.688;2023-06-10T12:37:32;24.10;99.90
36924;DHT22;22841;50.252;18.688;2023-06-10T12:40:04;24.60;99.90
36924;DHT22;22841;50.252;18.688;2023-06-10T12:42:32;25.00;99.90
36924;DHT22;22841;50.252;18.688;2023-06-10T12:45:02;25.50;98.90
36924;DHT22;22841;50.252;18.688;2023-06-10T12:47:33;26.10;96.80
36924;DHT22;22841;50.252;18.688;2023-06-10T12:50:02;26.50;94.60
36924;DHT22;22841;50.252;18.688;2023-06-10T12:52:29;26.70;92.70
36924;DHT22;22841;50.252;18.688;2023-06-10T12:54:55;27.00;92.60
36924;DHT22;22841;50.252;18.688;2023-06-10T12:57:22;27.70;88.40
36924;DHT22;22841;50.252;18.688;2023-06-10T12:59:48;27.70;84.50
36924;DHT22;22841;50.252;18.688;2023-06-10T13:02:23;27.40;85.40
36924;DHT22;22841;50.252;18.688;2023-06-10T13:04:50;26.90;90.80
36924;DHT22;22841;50.252;18.688;2023-06-10T13:07:17;26.90;90.90
36924;DHT22;22841;50.252;18.688;2023-06-10T13:09:44;26.50;91.20
36924;DHT22;22841;50.252;18.688;2023-06-10T13:12:10;26.10;94.10
36924;DHT22;22841;50.252;18.688;2023-06-10T13:14:37;25.70;95.60
36924;DHT22;22841;50.252;18.688;2023-06-10T13:17:06;24.90;99.90
36924;DHT22;22841;50.252;18.688;2023-06-10T13:19:35;24.60;99.90
36924;DHT22;22841;50.252;18.688;2023-06-10T13:22:02;24.50;99.90
36924;DHT22;22841;50.252;18.688;2023-06-10T13:24:28;24.30;99.90
36924;DHT22;22841;50.252;18.688;2023-06-10T13:26:55;24.20;99.90
36924;DHT22;22841;50.252;18.688;2023-06-10T13:29:22;24.00;99.90
36924;DHT22;22841;50.252;18.688;2023-06-10T13:31:48;23.80;99.90
36924;DHT22;22841;50.252;18.688;2023-06-10T13:34:14;23.60;99.90
36924;DHT22;22841;50.252;18.688;2023-06-10T13:36:40;23.40;99.90
36924;DHT22;22841;50.252;18.688;2023-06-10T13:39:06;23.40;99.90
36924;DHT22;22841;50.252;18.688;2023-06-10T13:41:33;23.40;99.90
36924;DHT22;22841;50.252;18.688;2023-06-10T13:43:59;23.30;99.90
36924;DHT22;22841;50.252;18.688;2023-06-10T13:46:25;23.30;99.90
36924;DHT22;22841;50.252;18.688;2023-06-10T13:48:52;23.20;99.90
36924;DHT22;22841;50.252;18.688;2023-06-10T13:51:18;23.20;99.90
36924;DHT22;22841;50.252;18.688;2023-06-10T13:53:44;23.00;99.90
36924;DHT22;22841;50.252;18.688;2023-06-10T13:56:11;22.90;99.90
36924;DHT22;22841;50.252;18.688;2023-06-10T13:58:37;22.70;99.90
36924;DHT22;22841;50.252;18.688;2023-06-10T14:01:06;22.50;99.90
36924;DHT22;22841;50.252;18.688;2023-06-10T14:03:32;22.30;99.90
36924;DHT22;22841;50.252;18.688;2023-06-10T14:05:58;22.20;99.90
36924;DHT22;22841;50.252;18.688;2023-06-10T14:08:24;22.10;99.90
36924;DHT22;22841;50.252;18.688;2023-06-10T14:10:50;22.00;99.90
36924;DHT22;22841;50.252;18.688;2023-06-10T14:13:17;21.90;99.90
36924;DHT22;22841;50.252;18.688;2023-06-10T14:15:44;22.00;99.90
36924;DHT22;22841;50.252;18.688;2023-06-10T14:18:10;22.10;99.90
36924;DHT22;22841;50.252;18.688;2023-06-10T14:20:36;22.20;99.90
36924;DHT22;22841;50.252;18.688;2023-06-10T14:23:02;22.30;99.90
36924;DHT22;22841;50.252;18.688;2023-06-10T14:25:28;22.50;99.90
36924;DHT22;22841;50.252;18.688;2023-06-10T14:27:55;22.60;99.90
36924;DHT22;22841;50.252;18.688;2023-06-10T14:30:21;22.50;99.90
36924;DHT22;22841;50.252;18.688;2023-06-10T14:32:47;22.20;99.90
36924;DHT22;22841;50.252;18.688;2023-06-10T14:35:13;21.80;99.90
36924;DHT22;22841;50.252;18.688;2023-06-10T14:37:39;21.30;99.90
36924;DHT22;22841;50.252;18.688;2023-06-10T14:40:06;20.90;99.90
36924;DHT22;22841;50.252;18.688;2023-06-10T14:42:32;20.40;99.90
36924;DHT22;22841;50.252;18.688;2023-06-10T14:44:59;20.10;99.90
36924;DHT22;22841;50.252;18.688;2023-06-10T14:47:25;20.00;99.90
36924;DHT22;22841;50.252;18.688;2023-06-10T14:49:51;19.80;99.90
36924;DHT22;22841;50.252;18.688;2023-06-10T14:52:17;19.70;99.90
36924;DHT22;22841;50.252;18.688;2023-06-10T14:54:43;19.70;99.90
36924;DHT22;22841;50.252;18.688;2023-06-10T14:57:09;19.50;99.90
36924;DHT22;22841;50.252;18.688;2023-06-10T14:59:36;19.50;99.90
36924;DHT22;22841;50.252;18.688;2023-06-10T15:02:02;19.40;99.90
36924;DHT22;22841;50.252;18.688;2023-06-10T15:04:28;19.40;99.90
36924;DHT22;22841;50.252;18.688;2023-06-10T15:06:54;19.40;99.90
36924;DHT22;22841;50.252;18.688;2023-06-10T15:09:21;19.40;99.90
36924;DHT22;22841;50.252;18.688;2023-06-10T15:11:47;19.30;99.90
36924;DHT22;22841;50.252;18.688;2023-06-10T15:14:13;19.30;99.90
36924;DHT22;22841;50.252;18.688;2023-06-10T15:16:39;19.30;99.90
36924;DHT22;22841;50.252;18.688;2023-06-10T15:19:05;19.30;99.90
36924;DHT22;22841;50.252;18.688;2023-06-10T15:21:34;19.40;99.90
36924;DHT22;22841;50.252;18.688;2023-06-10T15:24:01;19.40;99.90
36924;DHT22;22841;50.252;18.688;2023-06-10T15:26:27;19.40;99.90
36924;DHT22;22841;50.252;18.688;2023-06-10T15:28:53;19.40;99.90
36924;DHT22;22841;50.252;18.688;2023-06-10T15:31:19;19.40;99.90
36924;DHT22;22841;50.252;18.688;2023-06-10T15:33:45;19.40;99.90